Latest Coastal Weather Observations for Rottnest Island

IDW60701

Issued at 8:42 am WST Sunday 1 February 2015 (issued every 10 minutes, with the page automatically refreshed every 10 minutes)

About coastal observations | Map of coastal stations | Coastal observations for WA | Marine services | Other Formats
Station Details ID: 009193 Name: ROTTNEST ISLAND Lat: -32.01 Lon: 115.50 Height: 43.1 m
Data from the previous 72 hours. | See also: Recent months at Rottnest Island
Date/Time
WST
Temp

°C
Wind Pressure Rain
since 9am
mm
Weather Cloud Vis
km
Sea
Height
m
Swell
Dir
 
Speed
knots
Gust
knots
hPa Trend Height
m
Period
s
Dir
01/08:30am 23.1 E 15 22 1013.9 - 0.0 - - - - - - -
01/08:00am 22.5 E 12 19 1013.5 - 0.0 - - - - - - -
01/07:30am 21.9 ESE 14 19 1013.2 - 0.0 - - - - - - -
01/07:00am 21.7 ESE 12 17 1012.8 - 0.0 - - - - - - -
01/06:30am 21.6 ESE 14 19 1012.7 - 0.0 - - - - - - -
01/06:00am 21.3 E 13 19 1012.8 - 0.0 - - - - - - -
01/05:30am 21.2 ESE 13 17 1012.6 - 0.0 - - - - - - -
01/05:00am 21.2 ESE 13 18 1012.8 - 0.0 - - - - - - -
01/04:30am 21.3 ESE 15 20 1012.6 - 0.0 - - - - - - -
01/04:00am 21.6 ESE 15 21 1012.7 - 0.0 - - - - - - -
01/03:30am 21.7 ESE 12 17 1012.6 - 0.0 - - - - - - -
01/03:00am 22.2 ESE 13 19 1012.4 - 0.0 - - - - - - -
01/02:30am 22.7 ESE 14 19 1012.2 - 0.0 - - - - - - -
01/02:00am 23.5 ESE 14 19 1012.0 - 0.0 - - - - - - -
01/01:30am 24.0 ESE 15 22 1011.7 - 0.0 - - - - - - -
01/01:00am 23.8 ESE 11 16 1011.7 - 0.0 - - - - - - -
01/12:30am 24.8 E 13 19 1011.9 - 0.0 - - - - - - -
01/12:00am 25.0 ESE 13 18 1011.9 - 0.0 - - - - - - -
 
Date/Time
WST
Temp

°C
Wind Pressure Rain
since 9am
mm
Weather Cloud Vis
km
Sea
Height
m
Swell
Dir
 
Speed
knots
Gust
knots
hPa Trend Height
m
Period
s
Dir
31/11:30pm 25.8 ESE 15 20 1012.0 - 0.0 - - - - - - -
31/11:00pm 25.9 ESE 13 17 1012.5 - 0.0 - - - - - - -
31/10:30pm 26.0 ESE 11 15 1012.8 - 0.0 - - - - - - -
31/10:00pm 27.0 ESE 13 19 1012.8 - 0.0 - - - - - - -
31/09:30pm 27.2 ESE 11 15 1012.8 - 0.0 - - - - - - -
31/09:00pm 27.7 ESE 11 16 1012.5 - 0.0 - - - - - - -
31/08:30pm 27.6 ESE 10 13 1012.4 - 0.0 - - - - - - -
31/08:00pm 27.9 E 11 14 1012.9 - 0.0 - - - - - - -
31/07:30pm 27.7 E 8 11 1012.4 - 0.0 - - - - - - -
31/07:00pm 27.7 ESE 9 12 1012.1 - 0.0 - - - - - - -
31/06:30pm 28.2 ESE 10 13 1012.1 - 0.0 - - - - - - -
31/06:00pm 28.3 ESE 7 14 1012.0 - 0.0 - - - - - - -
31/05:30pm 29.5 ESE 8 11 1012.1 - 0.0 - - - - - - -
31/05:00pm 29.2 E 6 8 1012.4 - 0.0 - - - - - - -
31/04:30pm 29.5 NE 6 8 1012.7 - 0.0 - - - - - - -
31/04:00pm 29.8 ENE 9 12 1012.8 - 0.0 - - - - - - -
31/03:30pm 28.4 ENE 9 13 1013.1 - 0.0 - - - - - - -
31/03:00pm 28.3 ENE 9 12 1013.2 - 0.0 - - - - - - -
31/02:30pm 28.5 E 11 15 1013.0 - 0.0 - - - - - - -
31/02:00pm 28.3 E 11 15 1012.9 - 0.0 - - - - - - -
31/01:30pm 27.8 SE 9 12 1012.8 - 0.0 - - - - - - -
31/01:00pm 26.2 SE 14 18 1013.0 - 0.0 - - - - - - -
31/12:30pm 28.0 SE 15 19 1013.2 - 0.0 - - - - - - -
31/12:00pm 29.3 ESE 12 17 1013.5 - 0.0 - - - - - - -
31/11:30am 26.7 ESE 11 16 1013.6 - 0.0 - - - - - - -
31/11:00am 27.1 ESE 11 17 1013.8 - 0.0 - - - - - - -
31/10:30am 25.6 ESE 16 22 1013.7 - 0.0 - - - - - - -
31/10:00am 25.4 ESE 14 20 1013.7 - 0.0 - - - - - - -
31/09:30am 24.0 ESE 15 21 1013.6 - 0.0 - - - - - - -
31/09:00am 23.0 ESE 11 17 1013.8 - 0.0 - - - - - - -
31/08:30am 22.9 ESE 10 16 1014.1 - 0.0 - - - - - - -
31/08:00am 21.7 SE 10 15 1014.1 - 0.0 - - - - - - -
31/07:30am 21.3 ESE 11 16 1014.1 - 0.0 - - - - - - -
31/07:00am 20.9 E 11 16 1013.9 - 0.0 - - - - - - -
31/06:30am 20.8 E 14 21 1013.6 - 0.0 - - - - - - -
31/06:00am 20.8 E 11 15 1013.5 - 0.0 - - - - - - -
31/05:30am 20.4 ESE 11 15 1013.1 - 0.0 - - - - - - -
31/05:00am 20.7 ESE 10 16 1012.8 - 0.0 - - - - - - -
31/04:30am 21.4 E 11 15 1012.6 - 0.0 - - - - - - -
31/04:00am 22.2 E 14 21 1012.6 - 0.0 - - - - - - -
31/03:30am 22.7 E 14 21 1012.4 - 0.0 - - - - - - -
31/03:00am 23.1 E 16 21 1012.5 - 0.0 - - - - - - -
31/02:30am 23.3 ESE 12 18 1012.4 - 0.0 - - - - - - -
31/02:00am 24.0 E 15 22 1012.3 - 0.0 - - - - - - -
31/01:30am 24.8 E 16 22 1012.0 - 0.0 - - - - - - -
31/01:00am 25.4 ESE 15 20 1012.0 - 0.0 - - - - - - -
31/12:30am 26.1 ESE 13 19 1012.1 - 0.0 - - - - - - -
31/12:13am 27.5 E 17 27 1012.0 - 0.0 - - - - - - -
31/12:00am 27.9 E 18 26 1012.1 - 0.0 - - - - - - -
 
Date/Time
WST
Temp

°C
Wind Pressure Rain
since 9am
mm
Weather Cloud Vis
km
Sea
Height
m
Swell
Dir
 
Speed
knots
Gust
knots
hPa Trend Height
m
Period
s
Dir
30/11:50pm 28.1 E 18 28 1012.0 - 0.0 - - - - - - -
30/11:30pm 28.0 ESE 15 21 1011.7 - 0.0 - - - - - - -
30/11:00pm 27.9 ESE 12 19 1011.7 - 0.0 - - - - - - -
30/10:30pm 29.2 ESE 13 20 1011.6 - 0.0 - - - - - - -
30/10:00pm 28.7 SE 15 21 1011.4 - 0.0 - - - - - - -
30/09:30pm 26.5 SSE 16 20 1011.0 - 0.0 - - - - - - -
30/09:00pm 25.9 SSE 18 23 1010.8 - 0.0 - - - - - - -
30/08:55pm 26.4 SSE 15 21 1010.8 - 0.0 - - - - - - -
30/08:30pm 30.8 E 9 11 1010.5 - 0.0 - - - - - - -
30/08:00pm 31.1 E 8 10 1010.2 - 0.0 - - - - - - -
30/07:30pm 31.1 E 8 10 1010.1 - 0.0 - - - - - - -
30/07:00pm 30.7 ESE 9 11 1010.2 - 0.0 - - - - - - -
30/06:30pm 30.3 ESE 8 12 1010.0 - 0.0 - - - - - - -
30/06:00pm 29.3 SSE 7 10 1009.8 - 0.0 - - - - - - -
30/05:30pm 27.7 SSE 8 10 1009.7 - 0.0 - - - - - - -
30/05:00pm 29.3 SSE 6 8 1009.7 - 0.0 - - - - - - -
30/04:30pm 28.3 S 7 8 1009.7 - 0.0 - - - - - - -
30/04:00pm 29.5 S 9 12 1009.9 - 0.0 - - - - - - -
30/03:30pm 29.8 SSE 6 8 1010.1 - 0.0 - - - - - - -
30/03:00pm 30.3 SSE 7 9 1010.4 - 0.0 - - - - - - -
30/02:30pm 30.2 SE 5 8 1010.6 - 0.0 - - - - - - -
30/02:00pm 28.0 SSW 7 9 1010.8 - 0.0 - - - - - - -
30/01:30pm 27.5 SW 10 12 1011.0 - 0.0 - - - - - - -
30/01:00pm 27.7 SSW 8 11 1011.0 - 0.0 - - - - - - -
30/12:30pm 28.4 SSE 7 10 1011.1 - 0.0 - - - - - - -
30/12:00pm 26.6 S 6 8 1011.3 - 0.0 - - - - - - -
30/11:30am 27.5 SSE 11 13 1011.1 - 0.0 - - - - - - -
30/11:00am 27.6 SE 10 12 1011.2 - 0.0 - - - - - - -
30/10:30am 25.5 S 10 12 1011.4 - 0.0 - - - - - - -
30/10:00am 24.1 S 11 14 1011.2 - 0.0 - - - - - - -
30/09:30am 23.8 S 8 10 1011.8 - 0.0 - - - - - - -
30/09:00am 23.8 S 9 11 1011.8 - 0.0 - - - - - - -
30/08:30am 23.5 SSE 17 20 1011.0 - 0.0 - - - - - - -
30/08:00am 23.2 SSE 19 22 1010.5 - 0.0 - - - - - - -
30/07:30am 23.0 SSE 17 21 1010.7 - 0.0 - - - - - - -
30/07:00am 22.8 SSE 17 22 1010.5 - 0.0 - - - - - - -
30/06:30am 22.8 SSE 18 22 1010.3 - 0.0 - - - - - - -
30/06:00am 22.7 SE 14 18 1009.9 - 0.0 - - - - - - -
30/05:30am 22.9 SSE 17 21 1009.6 - 0.0 - - - - - - -
30/05:00am 23.0 SE 13 17 1009.6 - 0.0 - - - - - - -
30/04:30am 22.5 SSE 15 18 1009.4 - 0.0 - - - - - - -
30/04:00am 22.1 S 13 17 1009.4 - 0.0 - - - - - - -
30/03:30am 22.1 S 14 19 1009.2 - 0.0 - - - - - - -
30/03:00am 22.0 S 13 16 1009.4 - 0.0 - - - - - - -
30/02:30am 22.2 S 10 12 1009.5 - 0.0 - - - - - - -
30/02:00am 22.2 S 10 14 1009.8 - 0.0 - - - - - - -
30/01:30am 22.8 S 9 11 1009.9 - 0.0 - - - - - - -
30/01:00am 23.0 S 10 11 1010.0 - 0.0 - - - - - - -
30/12:30am 22.7 S 6 8 1010.1 - 0.0 - - - - - - -
30/12:00am 23.3 NNE 2 6 1010.2 - 0.0 - - - - - - -
 
Date/Time
WST
Temp

°C
Wind Pressure Rain
since 9am
mm
Weather Cloud Vis
km
Sea
Height
m
Swell
Dir
 
Speed
knots
Gust
knots
hPa Trend Height
m
Period
s
Dir
29/11:30pm 23.9 ESE 7 10 1010.5 - 0.0 - - - - - - -
29/11:00pm 23.6 SSE 14 17 1009.2 - 0.0 - - - - - - -
29/10:30pm 23.7 SSE 16 21 1009.2 - 0.0 - - - - - - -
29/10:00pm 23.8 SSE 14 19 1009.0 - 0.0 - - - - - - -
29/09:30pm 23.7 S 19 23 1008.4 - 0.0 - - - - - - -
29/09:00pm 23.0 S 18 23 1008.3 - 0.0 - - - - - - -
29/08:30pm 22.9 S 19 24 1008.4 - 0.0 - - - - - - -
29/08:00pm 23.0 S 21 26 1008.0 - 0.0 - - - - - - -
29/07:30pm 23.1 S 21 26 1007.8 - 0.0 - - - - - - -
29/07:00pm 23.1 S 23 30 1007.7 - 0.0 - - - - - - -
29/06:30pm 23.3 S 22 28 1007.3 - 0.0 - - - - - - -
29/06:00pm 23.6 S 21 27 1007.1 - 0.0 - - - - - - -
29/05:30pm 23.9 S 22 25 1007.0 - 0.0 - - - - - - -
29/05:00pm 23.8 SSW 22 26 1006.8 - 0.0 - - - - - - -
29/04:30pm 24.3 SSW 21 25 1006.9 - 0.0 - - - - - - -
29/04:00pm 24.1 SSW 19 24 1007.3 - 0.0 - - - - - - -
29/03:30pm 24.4 SSW 20 26 1007.6 - 0.0 - - - - - - -
29/03:00pm 24.2 SSW 19 24 1008.0 - 0.0 - - - - - - -
29/02:30pm 24.6 SSW 19 23 1008.3 - 0.0 - - - - - - -
29/02:00pm 25.3 SSW 18 23 1008.5 - 0.0 - - - - - - -
29/01:30pm 24.9 SSW 19 23 1008.9 - 0.0 - - - - - - -
29/01:00pm 24.2 SSW 20 23 1009.0 - 0.0 - - - - - - -
29/12:30pm 24.8 SSW 18 21 1009.2 - 0.0 - - - - - - -
29/12:00pm 24.1 SSW 17 21 1009.3 - 0.0 - - - - - - -
29/11:30am 24.1 SSW 17 20 1009.4 - 0.0 - - - - - - -
29/11:00am 24.0 SSW 16 19 1009.8 - 0.0 - - - - - - -
29/10:30am 23.2 SSW 14 17 1009.8 - 0.0 - - - - - - -
29/10:00am 23.2 S 14 18 1009.5 - 0.0 - - - - - - -
29/09:30am 23.2 S 15 17 1009.8 - 0.0 - - - - - - -
29/09:00am 22.5 S 15 19 1009.6 - 0.4 - - - - - - -

Other Formats:

Comma delimited format used in spreadsheet applications
http://www.bom.gov.au/fwo/IDW60701/IDW60701.94602.axf

JavaScript Object Notation format (JSON) in row-major order
http://www.bom.gov.au/fwo/IDW60701/IDW60701.94602.json